createdAt,value
2018-07-23T00:02:24.334Z,40.10
2018-07-23T00:04:54.841Z,39.24
2018-07-23T00:07:25.351Z,39.25
2018-07-23T00:09:55.846Z,39.81
2018-07-23T00:12:27.356Z,39.00
2018-07-23T00:14:57.967Z,39.06
2018-07-23T00:17:28.412Z,39.11
2018-07-23T00:19:58.826Z,39.66
2018-07-23T00:22:29.392Z,40.00
2018-07-23T00:24:59.781Z,40.81
2018-07-23T00:27:30.903Z,39.91
2018-07-23T00:30:01.331Z,39.91
2018-07-23T00:32:31.717Z,40.19
2018-07-23T00:35:02.178Z,40.30
2018-07-23T00:37:32.771Z,40.26
2018-07-23T00:40:03.393Z,42.02
2018-07-23T00:42:33.888Z,42.27
2018-07-23T00:45:04.809Z,42.59
2018-07-23T00:47:35.041Z,42.28
2018-07-23T00:50:05.778Z,42.26
2018-07-23T00:52:36.927Z,43.18
2018-07-23T00:55:07.532Z,43.86
2018-07-23T00:57:37.970Z,43.96
2018-07-23T01:00:08.398Z,43.10
2018-07-23T01:02:38.874Z,42.81
2018-07-23T01:05:09.339Z,43.12
2018-07-23T01:07:40.299Z,44.01
2018-07-23T01:10:10.923Z,43.56
2018-07-23T01:12:41.226Z,43.85
2018-07-23T01:15:11.505Z,43.94
2018-07-23T01:17:41.959Z,44.56
2018-07-23T01:20:12.443Z,45.06
2018-07-23T01:22:42.743Z,44.27
2018-07-23T01:25:13.443Z,45.54
2018-07-23T01:27:43.797Z,44.81
2018-07-23T01:30:14.344Z,45.49
2018-07-23T01:32:44.911Z,46.24
2018-07-23T01:35:15.281Z,45.25
2018-07-23T01:37:46.120Z,45.00
2018-07-23T01:40:16.428Z,45.16
2018-07-23T01:42:46.820Z,45.33
2018-07-23T01:45:17.304Z,46.14
2018-07-23T01:47:47.965Z,46.39
2018-07-23T01:50:18.355Z,46.49
2018-07-23T01:52:48.903Z,45.77
2018-07-23T01:55:19.274Z,46.41
2018-07-23T01:57:49.902Z,46.02
2018-07-23T02:00:21.102Z,44.76
2018-07-23T02:02:51.424Z,45.02
2018-07-23T02:05:22.144Z,45.63
2018-07-23T02:07:52.693Z,45.53
2018-07-23T02:10:23.236Z,45.79
2018-07-23T02:12:53.780Z,46.89
2018-07-23T02:15:24.482Z,48.02
2018-07-23T02:17:55.150Z,48.41
2018-07-23T02:20:25.850Z,48.50
2018-07-23T02:22:57.173Z,49.13
2018-07-23T02:25:27.689Z,49.41
2018-07-23T02:27:58.304Z,49.57
2018-07-23T02:30:28.722Z,49.84
2018-07-23T02:32:59.305Z,50.04
2018-07-23T02:35:29.677Z,50.38
2018-07-23T02:38:00.246Z,50.54
2018-07-23T02:40:30.762Z,51.30
2018-07-23T02:43:01.167Z,51.06
2018-07-23T02:45:31.467Z,51.41
2018-07-23T02:48:01.986Z,50.97
2018-07-23T02:50:32.383Z,51.25
2018-07-23T02:53:02.934Z,51.24
2018-07-23T02:55:33.431Z,51.92
2018-07-23T02:58:04.188Z,52.68
2018-07-23T03:00:34.984Z,52.81
2018-07-23T03:03:05.458Z,53.88
2018-07-23T03:05:36.006Z,54.95
2018-07-23T03:08:06.845Z,54.64
2018-07-23T03:10:37.230Z,55.21
2018-07-23T03:13:08.059Z,55.79
2018-07-23T03:15:38.514Z,55.75
2018-07-23T03:18:09.148Z,55.56
2018-07-23T03:20:39.755Z,54.97
2018-07-23T03:23:10.251Z,55.14
2018-07-23T03:25:40.645Z,55.56
2018-07-23T03:28:11.124Z,56.00
2018-07-23T03:30:41.530Z,55.73
2018-07-23T03:33:12.143Z,56.09
2018-07-23T03:35:42.722Z,55.83
2018-07-23T03:38:13.168Z,57.31
2018-07-23T03:40:43.695Z,56.30
2018-07-23T03:43:14.221Z,56.39
2018-07-23T03:45:44.809Z,56.29
2018-07-23T03:48:15.328Z,55.70
2018-07-23T03:50:45.885Z,54.14
2018-07-23T03:53:16.454Z,53.64
2018-07-23T03:55:47.133Z,51.61
2018-07-23T03:58:17.586Z,50.97
2018-07-23T04:00:48.201Z,49.79
2018-07-23T04:03:18.921Z,48.30
2018-07-23T04:05:49.319Z,47.30
2018-07-23T04:08:19.822Z,46.41
2018-07-23T04:10:50.464Z,45.03
2018-07-23T04:13:20.905Z,43.68
2018-07-23T04:15:51.313Z,43.40
2018-07-23T04:18:21.780Z,44.36
2018-07-23T04:20:52.088Z,43.82
2018-07-23T04:23:22.696Z,43.27
2018-07-23T04:25:53.272Z,42.48
2018-07-23T04:28:23.638Z,41.21
2018-07-23T04:30:54.007Z,41.42
2018-07-23T04:33:24.385Z,40.44
2018-07-23T04:35:54.896Z,39.01
2018-07-23T04:38:25.423Z,38.85
2018-07-23T04:40:56.789Z,38.25
2018-07-23T04:43:27.256Z,37.18
2018-07-23T04:45:57.912Z,38.84
2018-07-23T04:48:28.348Z,41.99
2018-07-23T04:50:58.688Z,41.95
2018-07-23T04:53:29.238Z,43.02
2018-07-23T04:56:00.351Z,42.45
2018-07-23T04:58:30.963Z,43.61
2018-07-23T05:01:01.484Z,42.67
2018-07-23T05:03:31.902Z,43.09
2018-07-23T05:06:02.289Z,44.89
2018-07-23T05:08:32.647Z,44.35
2018-07-23T05:11:03.149Z,45.03
2018-07-23T05:13:33.531Z,46.00
2018-07-23T05:16:04.162Z,46.49
2018-07-23T05:18:34.598Z,44.78
2018-07-23T05:21:05.374Z,40.97
2018-07-23T05:23:35.771Z,37.26
2018-07-23T05:26:06.300Z,35.04
2018-07-23T05:28:36.734Z,32.39
2018-07-23T05:31:07.072Z,34.04
2018-07-23T05:33:37.710Z,34.16
2018-07-23T05:36:08.251Z,32.04
2018-07-23T05:38:38.608Z,31.15
2018-07-23T05:41:09.049Z,31.66
2018-07-23T05:43:39.652Z,31.73
2018-07-23T05:46:10.146Z,33.70
2018-07-23T05:48:40.644Z,33.39
2018-07-23T05:51:11.392Z,34.49
2018-07-23T05:53:42.058Z,33.63
2018-07-23T05:56:12.424Z,33.08
2018-07-23T05:58:47.179Z,34.68
2018-07-23T06:01:20.107Z,36.19
2018-07-23T06:03:50.576Z,34.06
2018-07-23T06:06:21.195Z,35.28
2018-07-23T06:08:51.568Z,32.10
2018-07-23T06:11:21.912Z,33.30
2018-07-23T06:13:52.405Z,32.74
2018-07-23T06:16:22.900Z,33.15
2018-07-23T06:18:53.470Z,30.99
2018-07-23T06:21:23.946Z,32.65
2018-07-23T06:23:54.500Z,32.64
2018-07-23T06:26:25.000Z,32.13
2018-07-23T06:28:55.395Z,30.75
2018-07-23T06:31:25.969Z,30.92
2018-07-23T06:33:56.383Z,30.13
2018-07-23T06:36:27.024Z,28.74
2018-07-23T06:38:57.422Z,29.75
2018-07-23T06:41:27.889Z,29.75
2018-07-23T06:43:58.260Z,30.51
2018-07-23T06:46:28.886Z,32.39
2018-07-23T06:48:59.331Z,34.62
2018-07-23T06:51:29.682Z,32.88
2018-07-23T06:54:00.091Z,32.31
2018-07-23T06:56:30.736Z,31.01
2018-07-23T06:59:01.335Z,31.92
2018-07-23T07:01:32.168Z,30.02
2018-07-23T07:04:02.641Z,29.61
2018-07-23T07:06:33.020Z,30.36
2018-07-23T07:09:03.653Z,29.41
2018-07-23T07:11:36.129Z,29.00
2018-07-23T07:14:07.010Z,27.87
2018-07-23T07:16:37.512Z,27.92
2018-07-23T07:19:08.018Z,27.57
2018-07-23T07:21:38.374Z,29.96
2018-07-23T07:24:08.824Z,29.09
2018-07-23T07:26:39.614Z,28.16
2018-07-23T07:29:10.338Z,27.28
2018-07-23T07:31:40.814Z,28.44
2018-07-23T07:34:11.333Z,28.01
2018-07-23T07:36:41.822Z,27.15
2018-07-23T07:39:13.542Z,25.91
2018-07-23T07:41:44.134Z,25.17
2018-07-23T07:44:14.529Z,27.45
2018-07-23T07:46:45.121Z,24.10
2018-07-23T07:49:15.598Z,24.31
2018-07-23T07:51:45.941Z,23.04
2018-07-23T07:54:16.716Z,23.76
2018-07-23T07:56:47.046Z,24.33
2018-07-23T07:59:17.602Z,25.79
2018-07-23T08:01:48.096Z,25.32
2018-07-23T08:04:18.457Z,24.90
2018-07-23T08:06:48.906Z,23.74
2018-07-23T08:09:19.420Z,23.78
2018-07-23T08:11:50.037Z,23.49
2018-07-23T08:14:21.419Z,24.08
2018-07-23T08:16:51.786Z,23.66
2018-07-23T08:19:22.128Z,23.28
2018-07-23T08:21:52.743Z,24.37
2018-07-23T08:24:23.225Z,26.45
2018-07-23T08:26:53.639Z,26.32
2018-07-23T08:29:24.260Z,24.26
2018-07-23T08:31:54.714Z,23.72
2018-07-23T08:34:25.305Z,23.60
2018-07-23T08:36:55.827Z,26.08
2018-07-23T08:39:26.286Z,25.67
2018-07-23T08:41:56.802Z,25.29
2018-07-23T08:44:27.261Z,26.59
2018-07-23T08:46:57.778Z,27.02
2018-07-23T08:49:28.165Z,27.12
2018-07-23T08:51:58.420Z,25.51
2018-07-23T08:54:28.854Z,23.79
2018-07-23T08:56:59.525Z,22.41
2018-07-23T08:59:29.996Z,23.05
2018-07-23T09:02:00.590Z,24.28
2018-07-23T09:04:30.957Z,24.74
2018-07-23T09:07:01.421Z,24.25
2018-07-23T09:09:32.107Z,23.02
2018-07-23T09:12:02.605Z,22.90
2018-07-23T09:14:34.062Z,24.23
2018-07-23T09:17:04.373Z,25.32
2018-07-23T09:19:34.998Z,25.19
2018-07-23T09:22:05.583Z,26.71
2018-07-23T09:24:36.060Z,25.43
2018-07-23T09:27:06.626Z,26.50
2018-07-23T09:29:37.008Z,27.56
2018-07-23T09:32:07.689Z,29.35
2018-07-23T09:34:40.116Z,31.10
2018-07-23T09:37:10.736Z,31.82
2018-07-23T09:39:41.161Z,34.47
2018-07-23T09:42:11.417Z,34.38
2018-07-23T09:44:42.227Z,35.17
2018-07-23T09:47:12.812Z,35.56
2018-07-23T09:49:43.234Z,35.85
2018-07-23T09:52:13.781Z,36.12
2018-07-23T09:54:44.280Z,35.76
2018-07-23T09:57:14.642Z,36.35
2018-07-23T09:59:44.983Z,37.18
2018-07-23T10:02:15.391Z,36.90
2018-07-23T10:04:46.405Z,36.93
2018-07-23T10:07:17.223Z,37.03
2018-07-23T10:09:48.133Z,37.73
2018-07-23T10:12:18.562Z,38.03
2018-07-23T10:14:48.986Z,39.67
2018-07-23T10:17:19.543Z,43.73
2018-07-23T10:19:50.330Z,45.45
2018-07-23T10:22:20.849Z,43.89
2018-07-23T10:24:51.212Z,45.79
2018-07-23T10:27:21.795Z,46.75
2018-07-23T10:29:52.125Z,47.97
2018-07-23T10:32:22.762Z,48.26
2018-07-23T10:34:53.212Z,49.67
2018-07-23T10:37:23.870Z,47.17
2018-07-23T10:39:54.350Z,46.01
2018-07-23T10:42:25.298Z,45.49
2018-07-23T10:44:55.980Z,45.79
2018-07-23T10:47:26.365Z,44.31
2018-07-23T10:49:56.935Z,44.14
2018-07-23T10:52:27.305Z,43.50
2018-07-23T10:54:57.627Z,44.06
2018-07-23T10:57:28.312Z,43.81
2018-07-23T10:59:58.780Z,43.53
2018-07-23T11:02:29.356Z,42.90
2018-07-23T11:04:59.738Z,43.56
2018-07-23T11:07:30.139Z,43.82
2018-07-23T11:10:00.474Z,45.61
2018-07-23T11:12:31.032Z,47.36
2018-07-23T11:15:01.412Z,49.56
2018-07-23T11:17:32.187Z,49.72
2018-07-23T11:20:02.791Z,48.52
2018-07-23T11:22:33.421Z,51.26
2018-07-23T11:25:38.323Z,52.78
2018-07-23T11:27:35.189Z,53.48
2018-07-23T11:30:06.273Z,56.87
2018-07-23T11:32:37.149Z,55.83
2018-07-23T11:35:07.806Z,58.33
2018-07-23T11:37:38.299Z,59.85
2018-07-23T11:40:09.027Z,59.25
2018-07-23T11:42:39.407Z,60.89
2018-07-23T11:45:09.936Z,66.04
2018-07-23T11:47:40.901Z,63.47
2018-07-23T11:50:11.628Z,63.78
2018-07-23T11:52:42.088Z,58.26
2018-07-23T11:55:12.573Z,58.24
2018-07-23T11:57:42.991Z,57.81
2018-07-23T12:00:13.438Z,57.43
2018-07-23T12:02:43.965Z,55.57
2018-07-23T12:05:14.496Z,53.75
2018-07-23T12:07:45.019Z,53.44
2018-07-23T12:10:15.558Z,53.02
2018-07-23T12:12:46.034Z,53.97
2018-07-23T12:15:16.493Z,52.16
2018-07-23T12:17:46.911Z,48.25
2018-07-23T12:20:17.402Z,48.29
2018-07-23T12:22:48.063Z,49.33
2018-07-23T12:25:18.598Z,50.25
2018-07-23T12:27:49.087Z,47.70
2018-07-23T12:30:19.739Z,43.77
2018-07-23T12:32:50.085Z,43.96
2018-07-23T12:35:20.391Z,44.13
2018-07-23T12:37:50.700Z,42.16
2018-07-23T12:40:21.674Z,40.43
2018-07-23T12:42:52.258Z,38.72
2018-07-23T12:45:23.060Z,39.15
2018-07-23T12:47:53.919Z,37.84
2018-07-23T12:50:24.323Z,36.57
2018-07-23T12:52:54.913Z,36.03
2018-07-23T12:55:25.494Z,34.79
2018-07-23T12:57:55.950Z,37.67
2018-07-23T13:00:26.350Z,36.43
2018-07-23T13:02:56.700Z,36.49
2018-07-23T13:05:31.546Z,35.71
2018-07-23T13:08:03.807Z,35.01
2018-07-23T13:10:34.502Z,32.66
2018-07-23T13:13:05.014Z,33.56
2018-07-23T13:15:35.480Z,34.95
2018-07-23T13:18:05.942Z,34.16
2018-07-23T13:20:36.390Z,33.77
2018-07-23T13:23:06.873Z,32.65
2018-07-23T13:25:37.273Z,32.54
2018-07-23T13:28:07.985Z,32.83
2018-07-23T13:30:38.448Z,32.64
2018-07-23T13:33:08.850Z,33.03
2018-07-23T13:35:39.400Z,33.31
2018-07-23T13:38:09.946Z,33.46
2018-07-23T13:40:40.384Z,34.75
2018-07-23T13:43:10.742Z,34.35
2018-07-23T13:45:41.082Z,35.53
2018-07-23T13:48:12.100Z,35.76
2018-07-23T13:50:42.674Z,35.95
2018-07-23T13:53:13.505Z,35.46
2018-07-23T13:55:43.887Z,35.28
2018-07-23T13:58:14.463Z,35.02
2018-07-23T14:00:45.290Z,36.79
2018-07-23T14:03:15.782Z,39.12
2018-07-23T14:05:46.280Z,41.84
2018-07-23T14:08:17.166Z,44.45
2018-07-23T14:10:47.599Z,44.11
2018-07-23T14:13:18.460Z,44.77
2018-07-23T14:15:49.511Z,45.62
2018-07-23T14:18:20.042Z,46.80
2018-07-23T14:20:50.385Z,46.53
2018-07-23T14:23:20.930Z,46.84
2018-07-23T14:25:52.012Z,46.61
2018-07-23T14:28:22.656Z,47.16
2018-07-23T14:30:53.330Z,47.08
2018-07-23T14:33:23.801Z,48.65
2018-07-23T14:35:54.192Z,48.39
2018-07-23T14:38:24.962Z,48.26
2018-07-23T14:40:55.326Z,48.64
2018-07-23T14:43:25.754Z,48.27
2018-07-23T14:45:56.299Z,48.86
2018-07-23T14:48:27.459Z,49.75
2018-07-23T14:50:58.104Z,50.31
2018-07-23T14:53:28.481Z,50.98
2018-07-23T14:55:59.597Z,51.25
2018-07-23T14:58:30.027Z,51.84
2018-07-23T15:01:00.296Z,52.84
2018-07-23T15:03:30.756Z,53.54
2018-07-23T15:06:01.181Z,54.17
2018-07-23T15:08:31.849Z,53.38
2018-07-23T15:11:02.305Z,55.26
2018-07-23T15:13:32.661Z,56.20
2018-07-23T15:16:03.194Z,55.91
2018-07-23T15:18:33.642Z,54.51
2018-07-23T15:21:04.590Z,53.91
2018-07-23T15:23:35.284Z,53.89
2018-07-23T15:26:06.061Z,52.67
2018-07-23T15:28:36.573Z,52.60
2018-07-23T15:31:07.051Z,51.38
2018-07-23T15:33:37.455Z,50.08
2018-07-23T15:36:08.015Z,49.57
2018-07-23T15:38:38.475Z,49.54
2018-07-23T15:41:09.940Z,49.21
2018-07-23T15:43:40.401Z,48.73
2018-07-23T15:46:11.700Z,47.62
2018-07-23T15:48:42.521Z,47.01
2018-07-23T15:51:13.174Z,44.63
2018-07-23T15:53:43.547Z,43.43
2018-07-23T15:56:14.128Z,43.92
2018-07-23T15:58:44.494Z,42.34
2018-07-23T16:01:14.861Z,42.46
2018-07-23T16:03:45.159Z,41.54
2018-07-23T16:06:17.787Z,41.49
2018-07-23T16:08:49.395Z,40.61
2018-07-23T16:11:19.981Z,41.37
2018-07-23T16:13:50.555Z,41.25
2018-07-23T16:16:20.913Z,42.00
2018-07-23T16:18:51.584Z,43.10
2018-07-23T16:21:22.562Z,42.56
2018-07-23T16:23:53.134Z,43.45
2018-07-23T16:26:23.574Z,42.71
2018-07-23T16:28:54.345Z,43.27
2018-07-23T16:31:24.762Z,43.33
2018-07-23T16:33:55.246Z,44.00
2018-07-23T16:36:25.821Z,44.08
2018-07-23T16:38:58.203Z,44.82
2018-07-23T16:41:30.845Z,44.39
2018-07-23T16:44:01.635Z,44.64
2018-07-23T16:46:32.176Z,45.16
2018-07-23T16:49:02.448Z,45.17
2018-07-23T16:51:32.797Z,46.03
2018-07-23T16:54:03.549Z,45.71
2018-07-23T16:56:33.856Z,46.26
2018-07-23T16:59:04.468Z,46.88
2018-07-23T17:01:34.952Z,45.95
2018-07-23T17:04:05.406Z,46.24
2018-07-23T17:06:35.793Z,46.57
2018-07-23T17:09:09.461Z,46.85
2018-07-23T17:11:39.851Z,47.25
2018-07-23T17:14:10.304Z,46.93
2018-07-23T17:16:40.691Z,47.35
2018-07-23T17:19:11.112Z,47.50
2018-07-23T17:21:41.458Z,47.28
2018-07-23T17:24:11.820Z,47.86
2018-07-23T17:26:42.489Z,47.86
2018-07-23T17:29:13.073Z,47.77
2018-07-23T17:31:44.440Z,47.60
2018-07-23T17:34:15.072Z,47.81
2018-07-23T17:36:46.513Z,48.20
2018-07-23T17:39:17.136Z,48.23
2018-07-23T17:41:47.401Z,48.47
2018-07-23T17:44:18.728Z,47.83
2018-07-23T17:46:49.069Z,48.59
2018-07-23T17:49:19.433Z,49.25
2018-07-23T17:51:49.857Z,49.24
2018-07-23T17:54:20.268Z,49.61
2018-07-23T17:56:50.835Z,50.06
2018-07-23T17:59:21.270Z,50.71
2018-07-23T18:01:51.769Z,51.20
2018-07-23T18:04:22.290Z,50.58
2018-07-23T18:06:52.582Z,50.63
2018-07-23T18:09:23.204Z,51.09
2018-07-23T18:11:53.757Z,51.30
2018-07-23T18:14:24.079Z,52.02
2018-07-23T18:16:54.732Z,52.39
2018-07-23T18:19:25.687Z,51.88
2018-07-23T18:21:56.502Z,52.17
2018-07-23T18:24:26.854Z,52.63
2018-07-23T18:26:57.563Z,52.70
2018-07-23T18:29:28.116Z,53.17
2018-07-23T18:31:58.742Z,53.06
2018-07-23T18:34:29.201Z,53.47
2018-07-23T18:36:59.712Z,53.49
2018-07-23T18:39:29.973Z,53.80
2018-07-23T18:42:00.558Z,54.21
2018-07-23T18:44:30.924Z,54.78
2018-07-23T18:47:01.360Z,54.90
2018-07-23T18:49:44.475Z,55.15
2018-07-23T18:52:15.423Z,55.99
2018-07-23T18:54:47.880Z,55.70
2018-07-23T18:57:18.368Z,55.76
2018-07-23T18:59:48.873Z,56.82
2018-07-23T19:02:20.516Z,56.40
2018-07-23T19:04:51.053Z,56.70
2018-07-23T19:07:21.729Z,56.62
2018-07-23T19:09:52.164Z,56.46
2018-07-23T19:12:22.672Z,56.94
2018-07-23T19:14:53.054Z,57.23
2018-07-23T19:17:23.596Z,57.28
2018-07-23T19:19:54.049Z,56.59
2018-07-23T19:22:24.599Z,57.10
2018-07-23T19:24:54.912Z,57.33
2018-07-23T19:27:25.238Z,57.74
2018-07-23T19:29:55.681Z,57.96
2018-07-23T19:32:26.046Z,58.03
2018-07-23T19:34:56.451Z,58.41
2018-07-23T19:37:26.861Z,58.93
2018-07-23T19:39:57.240Z,59.42
2018-07-23T19:42:27.957Z,59.43
2018-07-23T19:44:58.248Z,58.85
2018-07-23T19:47:28.798Z,59.21
2018-07-23T19:49:59.128Z,59.55
2018-07-23T19:52:29.480Z,59.10
2018-07-23T19:55:00.075Z,58.93
2018-07-23T19:57:30.585Z,59.37
2018-07-23T20:00:00.927Z,59.89
2018-07-23T20:02:31.524Z,59.23
2018-07-23T20:05:01.919Z,59.43
2018-07-23T20:07:32.251Z,59.19
2018-07-23T20:10:03.338Z,59.79
2018-07-23T20:12:33.723Z,58.89
2018-07-23T20:15:04.349Z,60.10
2018-07-23T20:17:34.938Z,60.65
2018-07-23T20:20:05.889Z,60.36
2018-07-23T20:22:36.282Z,60.33
2018-07-23T20:25:06.869Z,60.59
2018-07-23T20:27:37.353Z,59.72
2018-07-23T20:30:07.790Z,59.92
2018-07-23T20:32:38.330Z,60.17
2018-07-23T20:35:09.168Z,59.95
2018-07-23T20:37:39.645Z,59.47
2018-07-23T20:40:10.088Z,59.91
2018-07-23T20:42:40.499Z,60.10
2018-07-23T20:45:11.577Z,59.78
2018-07-23T20:47:42.713Z,59.19
2018-07-23T20:50:13.105Z,58.85
2018-07-23T20:52:43.386Z,59.55
2018-07-23T20:55:13.850Z,59.24
2018-07-23T20:57:44.181Z,60.01
2018-07-23T21:00:14.674Z,60.80
2018-07-23T21:02:45.077Z,60.89
2018-07-23T21:05:16.213Z,61.71
2018-07-23T21:07:46.491Z,61.56
2018-07-23T21:10:16.880Z,61.85
2018-07-23T21:12:47.179Z,62.08
2018-07-23T21:15:18.032Z,62.51
2018-07-23T21:17:48.247Z,62.69
2018-07-23T21:20:19.672Z,62.58
2018-07-23T21:22:50.093Z,62.55
2018-07-23T21:25:21.444Z,63.33
2018-07-23T21:27:52.317Z,63.08
2018-07-23T21:30:22.912Z,63.62
2018-07-23T21:32:54.151Z,63.93
2018-07-23T21:35:25.264Z,63.57
2018-07-23T21:37:55.821Z,63.48
2018-07-23T21:40:26.311Z,63.23
2018-07-23T21:42:56.734Z,63.26
2018-07-23T21:45:27.094Z,63.59
2018-07-23T21:47:57.492Z,63.44
2018-07-23T21:50:27.966Z,63.11
2018-07-23T21:52:58.277Z,63.29
2018-07-23T21:55:28.760Z,63.06
2018-07-23T21:57:59.319Z,63.46
2018-07-23T22:00:31.017Z,63.28
2018-07-23T22:03:01.623Z,63.92
2018-07-23T22:05:32.597Z,63.70
2018-07-23T22:08:02.970Z,63.53
2018-07-23T22:10:33.844Z,63.11
2018-07-23T22:13:04.661Z,63.65
2018-07-23T22:15:35.165Z,63.57
2018-07-23T22:18:06.598Z,64.08
2018-07-23T22:20:37.370Z,63.65
2018-07-23T22:23:08.100Z,64.13
2018-07-23T22:25:38.830Z,64.11
2018-07-23T22:28:09.309Z,64.14
2018-07-23T22:30:39.825Z,64.90
2018-07-23T22:33:10.231Z,65.05
2018-07-23T22:35:41.043Z,65.17
2018-07-23T22:38:11.270Z,65.13
2018-07-23T22:40:41.728Z,65.15
2018-07-23T22:43:11.994Z,65.54
2018-07-23T22:45:42.682Z,65.50
2018-07-23T22:48:13.393Z,65.64
2018-07-23T22:50:43.905Z,66.18
2018-07-23T22:53:14.237Z,66.72
2018-07-23T22:55:44.438Z,66.78
2018-07-23T22:58:15.080Z,67.01
2018-07-23T23:00:45.661Z,66.98
2018-07-23T23:03:15.995Z,67.04
2018-07-23T23:05:46.513Z,66.67
2018-07-23T23:08:17.151Z,66.98
2018-07-23T23:10:47.723Z,66.83
2018-07-23T23:13:18.186Z,66.33
2018-07-23T23:15:48.711Z,66.14
2018-07-23T23:18:19.010Z,65.72
2018-07-23T23:20:49.511Z,65.96
2018-07-23T23:23:19.932Z,65.89
2018-07-23T23:25:50.282Z,66.09
2018-07-23T23:28:21.009Z,65.42
2018-07-23T23:30:51.432Z,65.84
2018-07-23T23:33:21.992Z,65.89
2018-07-23T23:35:52.347Z,65.48
2018-07-23T23:38:23.243Z,65.55
2018-07-23T23:40:53.560Z,65.94
2018-07-23T23:43:24.109Z,66.42
2018-07-23T23:45:54.396Z,66.16
2018-07-23T23:48:24.850Z,66.12
2018-07-23T23:50:55.346Z,65.77
2018-07-23T23:53:25.629Z,65.80
2018-07-23T23:55:56.331Z,65.59
2018-07-23T23:58:26.637Z,65.72
